Time;durP1;ratioP1;P1;durP2;ratioP2;P2;SDS_P1;SDS_P2;PMS_P1;PMS_P2;Temp;Humidity;BMP_temperature;BMP_pressure;BME280_temperature;BME280_humidity;BME280_pressure;Samples;Min_cycle;Max_cycle;Signal;HPM_P1;HPM_P2
2023/06/27 00:02:02;;;;;;;1999.90;999.90;;;23.10;80.70;;;;;;5051916;28;20024;-76
2023/06/27 00:04:30;;;;;;;1999.90;999.90;;;23.30;80.30;;;;;;5049052;28;20040;-72
2023/06/27 00:06:57;;;;;;;1999.90;999.90;;;23.80;77.00;;;;;;5055039;28;20052;-71
2023/06/27 00:09:24;;;;;;;1999.90;999.90;;;23.70;78.00;;;;;;5057644;28;20052;-73
2023/06/27 00:11:52;;;;;;;1999.90;999.90;;;23.80;77.50;;;;;;5057082;28;20100;-73
2023/06/27 00:14:19;;;;;;;1999.90;999.90;;;24.50;76.20;;;;;;5056531;28;20079;-72
2023/06/27 00:16:47;;;;;;;1999.90;999.90;;;24.80;76.00;;;;;;5050830;28;20483;-74
2023/06/27 00:19:14;;;;;;;1999.90;999.90;;;24.90;76.40;;;;;;5052021;28;20037;-73
2023/06/27 00:21:41;;;;;;;1999.90;999.90;;;24.70;75.90;;;;;;5047181;28;20040;-72
2023/06/27 00:24:09;;;;;;;1999.90;999.90;;;24.70;76.10;;;;;;5058985;28;20057;-74
2023/06/27 00:26:37;;;;;;;1999.90;999.90;;;24.70;76.10;;;;;;5053076;28;20384;-73
2023/06/27 00:29:05;;;;;;;1999.90;999.90;;;25.00;75.00;;;;;;5056507;28;20025;-72
2023/06/27 00:31:33;;;;;;;1999.90;999.90;;;25.40;75.20;;;;;;5053267;28;20017;-70
2023/06/27 00:34:01;;;;;;;1999.90;999.90;;;25.50;75.20;;;;;;5054229;28;20091;-73
2023/06/27 00:36:28;;;;;;;1999.90;999.90;;;25.80;74.80;;;;;;5050108;28;20081;-73
2023/06/27 00:38:55;;;;;;;1999.90;999.90;;;26.20;73.60;;;;;;5053846;28;20087;-73
2023/06/27 00:41:23;;;;;;;1999.90;999.90;;;25.90;73.00;;;;;;5048951;28;20502;-77
2023/06/27 00:43:50;;;;;;;1999.90;999.90;;;25.60;73.80;;;;;;5056856;28;20030;-70
2023/06/27 00:46:36;;;;;;;1999.90;999.90;;;25.80;71.80;;;;;;5049734;28;20025;-75
2023/06/27 00:49:07;;;;;;;1999.90;999.90;;;25.40;71.70;;;;;;5052715;28;20119;-75
2023/06/27 00:51:34;;;;;;;1999.90;999.90;;;24.50;73.80;;;;;;5051712;28;20029;-72
2023/06/27 00:54:02;;;;;;;1999.90;999.90;;;24.10;74.90;;;;;;5058739;28;20048;-72
2023/06/27 00:56:30;;;;;;;1999.90;999.90;;;23.80;75.70;;;;;;5043853;28;20377;-75
2023/06/27 00:59:01;;;;;;;1999.90;999.90;;;23.40;76.30;;;;;;5055645;28;20408;-76
2023/06/27 01:01:31;;;;;;;1999.90;999.90;;;22.90;76.60;;;;;;5050949;28;20561;-73
2023/06/27 01:03:59;;;;;;;1999.90;999.90;;;22.30;76.40;;;;;;5050970;28;20049;-74
2023/06/27 01:06:46;;;;;;;1999.90;999.90;;;21.40;78.30;;;;;;5045276;28;20433;-73
2023/06/27 01:09:39;;;;;;;1999.90;999.90;;;21.00;80.20;;;;;;5058712;28;20057;-75
2023/06/27 01:12:34;;;;;;;1999.90;999.90;;;21.20;80.60;;;;;;5041924;28;20029;-72
2023/06/27 01:15:06;;;;;;;1999.90;999.90;;;22.00;81.60;;;;;;5050849;28;20545;-73
2023/06/27 01:17:38;;;;;;;1999.90;999.90;;;23.00;79.60;;;;;;5045058;28;20136;-72
2023/06/27 01:20:07;;;;;;;1999.90;999.90;;;23.50;78.20;;;;;;5047344;28;20479;-73
2023/06/27 01:22:42;;;;;;;1999.90;999.90;;;24.00;76.00;;;;;;5055352;28;20867;-75
2023/06/27 01:25:13;;;;;;;1999.90;999.90;;;24.00;76.60;;;;;;5053868;28;20078;-73
2023/06/27 01:27:40;;;;;;;1999.90;999.90;;;24.10;76.60;;;;;;5050729;28;20028;-73
2023/06/27 01:30:08;;;;;;;1999.90;999.90;;;24.40;76.50;;;;;;5054937;28;20033;-72
2023/06/27 01:32:57;;;;;;;1999.90;999.90;;;24.90;75.00;;;;;;5054797;28;20035;-74
2023/06/27 01:35:39;;;;;;;1999.90;999.90;;;25.10;73.60;;;;;;5057010;28;20736;-73
2023/06/27 01:38:14;;;;;;;1999.90;999.90;;;25.00;74.40;;;;;;5056931;28;20103;-70
2023/06/27 01:40:44;;;;;;;1999.90;999.90;;;24.70;74.20;;;;;;5061026;28;20040;-74
2023/06/27 01:43:14;;;;;;;1999.90;999.90;;;23.60;75.40;;;;;;5064288;28;20037;-71
2023/06/27 01:45:42;;;;;;;1999.90;999.90;;;23.40;75.80;;;;;;5055182;28;20103;-72
2023/06/27 01:48:10;;;;;;;1999.90;999.90;;;23.50;76.00;;;;;;5057474;28;20040;-71
2023/06/27 01:50:37;;;;;;;1999.90;999.90;;;23.90;76.20;;;;;;5050161;28;20033;-73
2023/06/27 01:53:05;;;;;;;1999.90;999.90;;;24.80;75.30;;;;;;5051904;28;20029;-71
2023/06/27 01:55:32;;;;;;;1999.90;999.90;;;25.30;74.10;;;;;;5053027;28;20029;-73
2023/06/27 01:58:01;;;;;;;1999.90;999.90;;;25.50;73.80;;;;;;5056012;28;20107;-72
2023/06/27 02:00:28;;;;;;;1999.90;999.90;;;25.10;74.00;;;;;;5053764;28;20108;-71
2023/06/27 02:02:56;;;;;;;1999.90;999.90;;;25.00;74.10;;;;;;5055501;28;20037;-70
2023/06/27 02:05:24;;;;;;;1999.90;999.90;;;25.30;74.80;;;;;;5059722;28;20224;-69
2023/06/27 02:07:51;;;;;;;1999.90;999.90;;;25.40;74.30;;;;;;5057840;28;20036;-71
2023/06/27 02:10:20;;;;;;;1999.90;999.90;;;25.60;74.40;;;;;;5047179;28;20032;-70
2023/06/27 02:12:48;;;;;;;1999.90;999.90;;;26.00;74.00;;;;;;5050305;28;20475;-72
2023/06/27 02:15:15;;;;;;;1999.90;999.90;;;26.30;73.30;;;;;;5057158;28;20061;-69
2023/06/27 02:17:42;;;;;;;1999.90;999.90;;;25.70;73.40;;;;;;5058072;28;20098;-71
2023/06/27 02:20:10;;;;;;;1999.90;999.90;;;25.20;73.90;;;;;;5053825;28;20037;-70
2023/06/27 02:22:37;;;;;;;1999.90;999.90;;;25.20;74.80;;;;;;5054801;28;20028;-70
2023/06/27 02:25:05;;;;;;;1999.90;999.90;;;25.20;74.30;;;;;;5048096;28;20111;-70
2023/06/27 02:27:32;;;;;;;1999.90;999.90;;;25.00;73.40;;;;;;5059239;28;20029;-73
2023/06/27 02:30:00;;;;;;;1999.90;999.90;;;25.20;73.10;;;;;;5055748;28;20477;-71
2023/06/27 02:32:27;;;;;;;1999.90;999.90;;;24.90;72.80;;;;;;5048611;28;20052;-69
2023/06/27 02:34:54;;;;;;;1999.90;999.90;;;24.10;73.10;;;;;;5051973;28;20518;-70
2023/06/27 02:37:22;;;;;;;1999.90;999.90;;;23.40;74.50;;;;;;5050638;28;20110;-69
2023/06/27 02:39:50;;;;;;;1999.90;999.90;;;23.30;75.20;;;;;;5056582;28;20539;-73
2023/06/27 02:42:17;;;;;;;1999.90;999.90;;;23.00;75.00;;;;;;5056783;28;20045;-70
2023/06/27 02:44:45;;;;;;;1999.90;999.90;;;23.00;75.90;;;;;;5054114;28;20036;-70
2023/06/27 02:47:12;;;;;;;1999.90;999.90;;;23.00;75.50;;;;;;5048420;28;20032;-72
2023/06/27 02:49:39;;;;;;;1999.90;999.90;;;22.50;76.10;;;;;;5046619;28;20040;-70
2023/06/27 02:52:07;;;;;;;1999.90;999.90;;;22.00;75.80;;;;;;5048640;28;20021;-69
2023/06/27 02:54:34;;;;;;;1999.90;999.90;;;21.70;76.30;;;;;;5051673;28;20467;-69
2023/06/27 02:57:02;;;;;;;1999.90;999.90;;;21.20;76.80;;;;;;5047449;28;20017;-71
2023/06/27 02:59:29;;;;;;;1999.90;999.90;;;20.80;77.70;;;;;;5049247;28;20079;-70
2023/06/27 03:01:57;;;;;;;1999.90;999.90;;;20.20;78.20;;;;;;5049304;28;20420;-68
2023/06/27 03:04:26;;;;;;;1999.90;999.90;;;19.90;79.00;;;;;;5055815;28;20102;-70
2023/06/27 03:06:53;;;;;;;1999.90;999.90;;;19.80;79.50;;;;;;5049413;28;20464;-70
2023/06/27 03:09:21;;;;;;;1999.90;999.90;;;19.90;80.20;;;;;;5051431;28;20116;-70
2023/06/27 03:11:49;;;;;;;1999.90;999.90;;;20.30;79.70;;;;;;5048124;28;20025;-69
2023/06/27 03:14:18;;;;;;;1999.90;999.90;;;20.80;79.20;;;;;;5056869;28;20032;-74
2023/06/27 03:16:46;;;;;;;1999.90;999.90;;;21.10;78.10;;;;;;5055711;28;20074;-72
2023/06/27 03:19:13;;;;;;;1999.90;999.90;;;21.20;77.90;;;;;;5060240;28;20024;-74
2023/06/27 03:21:40;;;;;;;1999.90;999.90;;;21.20;79.00;;;;;;5049124;28;20033;-70
2023/06/27 03:24:08;;;;;;;1999.90;999.90;;;21.40;78.70;;;;;;5059888;28;20491;-71
2023/06/27 03:26:35;;;;;;;1999.90;999.90;;;21.30;77.80;;;;;;5052169;28;20033;-72
2023/06/27 03:29:02;;;;;;;1999.90;999.90;;;21.00;77.70;;;;;;5056290;28;20051;-71
2023/06/27 03:31:30;;;;;;;1999.90;999.90;;;20.80;77.90;;;;;;5056702;28;20028;-69
2023/06/27 03:33:59;;;;;;;1999.90;999.90;;;20.70;79.30;;;;;;5055893;28;20029;-72
2023/06/27 03:36:29;;;;;;;1999.90;999.90;;;20.70;79.10;;;;;;5047844;28;20017;-71
2023/06/27 03:38:56;;;;;;;1999.90;999.90;;;20.50;79.70;;;;;;5058368;28;20035;-71
2023/06/27 03:41:23;;;;;;;1999.90;999.90;;;20.40;79.50;;;;;;5046271;28;20028;-73
2023/06/27 03:43:51;;;;;;;1999.90;999.90;;;20.40;79.90;;;;;;5055707;28;20401;-70
2023/06/27 03:46:18;;;;;;;1999.90;999.90;;;20.50;80.00;;;;;;5051852;28;20164;-75
2023/06/27 03:48:47;;;;;;;1999.90;999.90;;;20.50;79.50;;;;;;5055922;28;20052;-74
2023/06/27 03:51:14;;;;;;;1999.90;999.90;;;20.50;79.80;;;;;;5049669;28;20033;-73
2023/06/27 03:53:41;;;;;;;1999.90;999.90;;;20.40;80.10;;;;;;5060914;28;20024;-72
2023/06/27 03:56:09;;;;;;;1999.90;999.90;;;20.30;79.50;;;;;;5058559;28;20109;-71
2023/06/27 03:58:36;;;;;;;1999.90;999.90;;;20.20;79.00;;;;;;5058151;28;20058;-72
2023/06/27 04:01:03;;;;;;;1999.90;999.90;;;20.00;79.70;;;;;;5072010;28;20084;-72
2023/06/27 04:03:30;;;;;;;1999.90;999.90;;;19.90;80.20;;;;;;5062916;28;20114;-73
2023/06/27 04:05:58;;;;;;;1999.90;999.90;;;19.80;80.20;;;;;;5057181;28;20056;-71
2023/06/27 04:08:25;;;;;;;1999.90;999.90;;;19.80;80.80;;;;;;5062952;28;20031;-71
2023/06/27 04:10:52;;;;;;;1999.90;999.90;;;19.80;80.30;;;;;;5053491;28;20082;-72
2023/06/27 04:13:20;;;;;;;1999.90;999.90;;;19.80;80.70;;;;;;5057764;28;20024;-72
2023/06/27 04:15:47;;;;;;;1999.90;999.90;;;19.80;80.10;;;;;;5054433;28;20454;-69
2023/06/27 04:18:14;;;;;;;1999.90;999.90;;;19.80;80.60;;;;;;5051167;28;20025;-71
2023/06/27 04:20:42;;;;;;;1999.90;999.90;;;19.80;80.70;;;;;;5051533;28;20095;-71
2023/06/27 04:23:09;;;;;;;1999.90;999.90;;;19.80;80.70;;;;;;5055394;28;20044;-72
2023/06/27 04:25:37;;;;;;;1999.90;999.90;;;19.80;80.70;;;;;;5054394;28;20100;-71
2023/06/27 04:28:05;;;;;;;1999.90;999.90;;;19.70;81.70;;;;;;5048120;28;20049;-72
2023/06/27 04:30:32;;;;;;;1999.90;999.90;;;19.70;81.90;;;;;;5052334;28;20021;-71
2023/06/27 04:33:02;;;;;;;1999.90;999.90;;;19.60;81.10;;;;;;5052653;28;20033;-71
2023/06/27 04:35:30;;;;;;;1999.90;999.90;;;19.50;82.10;;;;;;5058725;28;20063;-71
2023/06/27 04:37:57;;;;;;;1999.90;999.90;;;19.40;82.00;;;;;;5050416;28;20025;-72
2023/06/27 04:40:24;;;;;;;1999.90;999.90;;;19.30;82.80;;;;;;5059167;28;20041;-72
2023/06/27 04:42:52;;;;;;;1999.90;999.90;;;19.30;82.90;;;;;;5051326;28;20025;-73
2023/06/27 04:45:19;;;;;;;1999.90;999.90;;;19.30;82.70;;;;;;5054060;28;22319;-72
2023/06/27 04:47:49;;;;;;;1999.90;999.90;;;19.20;82.50;;;;;;5055060;28;20170;-73
2023/06/27 04:50:19;;;;;;;1999.90;999.90;;;19.10;82.20;;;;;;5043877;28;20064;-71
2023/06/27 04:52:46;;;;;;;1999.90;999.90;;;19.00;82.40;;;;;;5050916;28;20039;-71
2023/06/27 04:55:13;;;;;;;1999.90;999.90;;;18.90;83.00;;;;;;5067674;28;20037;-71
2023/06/27 04:57:40;;;;;;;1999.90;999.90;;;18.80;83.00;;;;;;5056830;28;20120;-72
2023/06/27 05:00:11;;;;;;;1999.90;999.90;;;18.70;82.80;;;;;;5061238;28;20025;-72
2023/06/27 05:02:39;;;;;;;1999.90;999.90;;;18.50;83.00;;;;;;5061260;28;20113;-72
2023/06/27 05:05:09;;;;;;;1999.90;999.90;;;18.40;83.60;;;;;;5058742;28;20132;-71
2023/06/27 05:07:37;;;;;;;1999.90;999.90;;;18.40;84.20;;;;;;5061571;28;20528;-72
2023/06/27 05:10:04;;;;;;;1999.90;999.90;;;18.50;84.80;;;;;;5064733;28;20028;-71
2023/06/27 05:12:32;;;;;;;1999.90;999.90;;;18.50;85.10;;;;;;5059402;28;20033;-75
2023/06/27 05:14:59;;;;;;;1999.90;999.90;;;18.50;84.80;;;;;;5068034;28;20497;-74
2023/06/27 05:17:26;;;;;;;1999.90;999.90;;;18.50;84.20;;;;;;5055000;28;20040;-74
2023/06/27 05:19:54;;;;;;;1999.90;999.90;;;18.40;84.40;;;;;;5058170;28;20024;-75
2023/06/27 05:22:21;;;;;;;1999.90;999.90;;;18.30;84.90;;;;;;5060128;28;20111;-74
2023/06/27 05:24:48;;;;;;;1999.90;999.90;;;18.30;84.90;;;;;;5065193;28;20044;-73
2023/06/27 05:27:15;;;;;;;1999.90;999.90;;;18.20;85.30;;;;;;5058071;28;20036;-75
2023/06/27 05:29:43;;;;;;;1999.90;999.90;;;18.10;85.40;;;;;;5063326;28;20025;-73
2023/06/27 05:32:10;;;;;;;1999.90;999.90;;;18.00;85.80;;;;;;5053855;28;20064;-73
2023/06/27 05:34:37;;;;;;;1999.90;999.90;;;18.00;86.00;;;;;;5062740;28;20078;-75
2023/06/27 05:37:05;;;;;;;1999.90;999.90;;;17.90;86.10;;;;;;5056289;28;20028;-74
2023/06/27 05:39:32;;;;;;;1999.90;999.90;;;17.90;86.40;;;;;;5054334;28;20117;-74
2023/06/27 05:41:59;;;;;;;1999.90;999.90;;;17.90;86.40;;;;;;5062481;28;20036;-73
2023/06/27 05:44:27;;;;;;;1999.90;999.90;;;17.80;86.50;;;;;;5061340;28;20696;-72
2023/06/27 05:46:54;;;;;;;1999.90;999.90;;;17.70;86.50;;;;;;5051445;28;20039;-72
2023/06/27 05:49:21;;;;;;;1999.90;999.90;;;17.70;87.10;;;;;;5061678;28;20024;-72
2023/06/27 05:51:49;;;;;;;1999.90;999.90;;;17.60;87.20;;;;;;5054871;28;20028;-73
2023/06/27 05:54:16;;;;;;;1999.90;999.90;;;17.60;87.60;;;;;;5061117;28;20450;-73
2023/06/27 05:56:43;;;;;;;1999.90;999.90;;;17.60;87.70;;;;;;5051617;28;20035;-73
2023/06/27 05:59:11;;;;;;;1999.90;999.90;;;17.50;87.70;;;;;;5065749;28;20082;-74
2023/06/27 06:01:38;;;;;;;1999.90;999.90;;;17.50;87.90;;;;;;5053297;28;20041;-72
2023/06/27 06:04:06;;;;;;;1999.90;999.90;;;17.30;88.00;;;;;;5056617;28;20052;-72
2023/06/27 06:06:35;;;;;;;1999.90;999.90;;;17.20;88.10;;;;;;5053055;28;20037;-70
2023/06/27 06:09:02;;;;;;;1999.90;999.90;;;17.00;88.20;;;;;;5059418;28;20032;-72
2023/06/27 06:11:30;;;;;;;1999.90;999.90;;;16.90;88.70;;;;;;5061114;28;20525;-72
2023/06/27 06:13:57;;;;;;;1999.90;999.90;;;16.70;89.00;;;;;;5056148;28;20036;-72
2023/06/27 06:16:25;;;;;;;1999.90;999.90;;;16.60;89.20;;;;;;5049748;28;20484;-71
2023/06/27 06:18:52;;;;;;;1999.90;999.90;;;16.50;89.50;;;;;;5050249;28;20120;-72
2023/06/27 06:21:20;;;;;;;1999.90;999.90;;;16.40;90.00;;;;;;5050578;28;20049;-73
2023/06/27 06:23:47;;;;;;;1999.90;999.90;;;16.30;90.10;;;;;;5053109;28;20035;-73
2023/06/27 06:26:14;;;;;;;1999.90;999.90;;;16.20;90.30;;;;;;5045109;28;20040;-73
2023/06/27 06:28:44;;;;;;;1999.90;999.90;;;16.10;90.60;;;;;;5058259;28;20582;-72
2023/06/27 06:31:14;;;;;;;1999.90;999.90;;;16.10;90.80;;;;;;5051958;28;20103;-73
2023/06/27 06:33:41;;;;;;;1999.90;999.90;;;16.00;90.80;;;;;;5064399;28;20021;-75
2023/06/27 06:36:09;;;;;;;1999.90;999.90;;;16.00;91.00;;;;;;5056715;28;20017;-73
2023/06/27 06:38:36;;;;;;;1999.90;999.90;;;15.90;91.00;;;;;;5060887;28;20035;-73
2023/06/27 06:41:04;;;;;;;1999.90;999.90;;;15.90;91.20;;;;;;5055909;28;20392;-71
2023/06/27 06:43:31;;;;;;;1999.90;999.90;;;15.80;91.30;;;;;;5056507;28;20228;-75
2023/06/27 06:45:59;;;;;;;1999.90;999.90;;;15.70;91.50;;;;;;5051065;28;20021;-73
2023/06/27 06:48:27;;;;;;;1999.90;999.90;;;15.60;91.60;;;;;;5067088;28;20021;-74
2023/06/27 06:50:54;;;;;;;1999.90;999.90;;;15.50;91.70;;;;;;5056362;28;20055;-74
2023/06/27 06:53:21;;;;;;;1999.90;999.90;;;15.40;91.80;;;;;;5061073;28;20021;-74
2023/06/27 06:55:49;;;;;;;1999.90;999.90;;;15.30;91.90;;;;;;5057585;28;20503;-72
2023/06/27 06:58:17;;;;;;;1999.90;999.90;;;15.20;92.20;;;;;;5054417;28;20020;-71
2023/06/27 07:00:45;;;;;;;1999.90;999.90;;;15.10;92.30;;;;;;5056338;28;20847;-73
2023/06/27 07:03:12;;;;;;;1999.90;999.90;;;15.00;92.50;;;;;;5058219;28;20029;-74
2023/06/27 07:05:42;;;;;;;1999.90;999.90;;;14.90;92.70;;;;;;5057729;28;20053;-75
2023/06/27 07:08:10;;;;;;;1999.90;999.90;;;14.90;92.80;;;;;;5050337;28;20025;-72
2023/06/27 07:10:37;;;;;;;1999.90;999.90;;;14.80;93.00;;;;;;5052123;28;20046;-71
2023/06/27 07:13:05;;;;;;;1999.90;999.90;;;14.70;93.20;;;;;;5057880;28;20669;-72
2023/06/27 07:15:34;;;;;;;1999.90;999.90;;;14.70;93.40;;;;;;5053382;28;20033;-72
2023/06/27 07:18:01;;;;;;;1999.90;999.90;;;14.70;93.60;;;;;;5059068;28;21059;-70
2023/06/27 07:20:28;;;;;;;1999.90;999.90;;;14.60;93.80;;;;;;5058277;28;20037;-71
2023/06/27 07:22:56;;;;;;;1999.90;999.90;;;14.60;94.00;;;;;;5061293;28;20032;-68
2023/06/27 07:25:24;;;;;;;1999.90;999.90;;;14.60;94.10;;;;;;5057927;28;20033;-70
2023/06/27 07:27:51;;;;;;;1999.90;999.90;;;14.50;93.90;;;;;;5058785;28;20051;-72
2023/06/27 07:30:18;;;;;;;1999.90;999.90;;;14.50;94.00;;;;;;5047140;28;20086;-73
2023/06/27 07:32:45;;;;;;;1999.90;999.90;;;14.50;94.00;;;;;;5059119;28;20025;-70
2023/06/27 07:35:14;;;;;;;1999.90;999.90;;;14.40;94.20;;;;;;5060570;28;20032;-70
2023/06/27 07:37:41;;;;;;;1999.90;999.90;;;14.40;94.20;;;;;;5060693;28;20029;-71
2023/06/27 07:40:09;;;;;;;1999.90;999.90;;;14.40;94.40;;;;;;5055485;28;20110;-71
2023/06/27 07:42:37;;;;;;;1999.90;999.90;;;14.40;94.60;;;;;;5050543;28;20082;-70
2023/06/27 07:45:05;;;;;;;1999.90;999.90;;;14.40;94.60;;;;;;5052680;28;20037;-71
2023/06/27 07:47:32;;;;;;;1999.90;999.90;;;14.40;94.80;;;;;;5059035;28;20117;-71
2023/06/27 07:49:59;;;;;;;1999.90;999.90;;;14.40;94.80;;;;;;5051603;28;20039;-71
2023/06/27 07:52:27;;;;;;;1999.90;999.90;;;14.40;95.00;;;;;;5053040;28;20025;-71
2023/06/27 07:54:54;;;;;;;1999.90;999.90;;;14.40;95.00;;;;;;5058713;28;20032;-71
2023/06/27 07:57:21;;;;;;;1999.90;999.90;;;14.40;94.60;;;;;;5049700;28;20047;-70
2023/06/27 07:59:48;;;;;;;1999.90;999.90;;;14.50;94.40;;;;;;5059174;28;20028;-70
2023/06/27 08:02:16;;;;;;;1999.90;999.90;;;14.50;94.30;;;;;;5049412;28;20139;-71
2023/06/27 08:04:43;;;;;;;1999.90;999.90;;;14.50;94.30;;;;;;5052448;28;20045;-72
2023/06/27 08:07:11;;;;;;;1999.90;999.90;;;14.50;94.50;;;;;;5048138;28;20438;-70
2023/06/27 08:09:38;;;;;;;1999.90;999.90;;;14.50;94.50;;;;;;5050592;28;20032;-71
2023/06/27 08:12:06;;;;;;;1999.90;999.90;;;14.50;94.70;;;;;;5047051;28;20434;-72
2023/06/27 08:14:33;;;;;;;1999.90;999.90;;;14.50;95.10;;;;;;5048967;28;20049;-70
2023/06/27 08:17:01;;;;;;;1999.90;999.90;;;14.50;95.30;;;;;;5051984;28;20873;-70
2023/06/27 08:19:28;;;;;;;1999.90;999.90;;;14.50;95.50;;;;;;5053270;28;20094;-70
2023/06/27 08:21:55;;;;;;;1999.90;999.90;;;14.40;95.70;;;;;;5053928;28;20033;-71
2023/06/27 08:24:22;;;;;;;1999.90;999.90;;;14.40;96.00;;;;;;5047531;28;20024;-70
2023/06/27 08:26:50;;;;;;;1999.90;999.90;;;14.30;96.20;;;;;;5047014;28;20577;-72
2023/06/27 08:29:17;;;;;;;1999.90;999.90;;;14.20;96.40;;;;;;5060645;28;20037;-72
2023/06/27 08:31:46;;;;;;;1999.90;999.90;;;14.10;96.70;;;;;;5054912;28;20020;-72
2023/06/27 08:34:14;;;;;;;1999.90;999.90;;;14.10;97.10;;;;;;5053103;28;20024;-72
2023/06/27 08:36:41;;;;;;;1999.90;999.90;;;14.00;97.40;;;;;;5046648;28;20152;-72
2023/06/27 08:39:08;;;;;;;1999.90;999.90;;;13.90;97.70;;;;;;5050163;28;20025;-72
2023/06/27 08:41:36;;;;;;;1999.90;999.90;;;13.90;97.90;;;;;;5049530;28;20124;-72
2023/06/27 08:44:03;;;;;;;1999.90;999.90;;;13.80;98.00;;;;;;5062080;28;20075;-72
2023/06/27 08:46:33;;;;;;;1999.90;999.90;;;13.80;98.20;;;;;;5052468;28;20025;-72
2023/06/27 08:49:04;;;;;;;1999.90;999.90;;;13.70;97.90;;;;;;5053264;28;20041;-72
2023/06/27 08:51:33;;;;;;;1999.90;999.90;;;13.60;97.80;;;;;;5051613;28;20039;-71
2023/06/27 08:54:13;;;;;;;1999.90;999.90;;;13.60;97.80;;;;;;5054214;28;20068;-71
2023/06/27 08:56:41;;;;;;;1999.90;999.90;;;13.50;98.00;;;;;;5041533;28;20025;-73
2023/06/27 08:59:11;;;;;;;1999.90;999.90;;;13.40;98.30;;;;;;5060219;28;20037;-72
2023/06/27 09:01:41;;;;;;;1999.90;999.90;;;13.30;98.50;;;;;;5052493;28;20044;-72
2023/06/27 09:04:10;;;;;;;1999.90;999.90;;;13.30;98.60;;;;;;5048072;28;20045;-73
2023/06/27 09:06:40;;;;;;;1999.90;999.90;;;13.30;98.80;;;;;;5057389;28;20032;-72
2023/06/27 09:09:08;;;;;;;1999.90;999.90;;;13.20;99.00;;;;;;5051189;28;20021;-72
2023/06/27 09:11:36;;;;;;;1999.90;999.90;;;13.30;99.20;;;;;;5053910;28;20031;-73
2023/06/27 09:14:05;;;;;;;1999.90;999.90;;;13.20;99.30;;;;;;5059043;28;20116;-71
2023/06/27 09:16:34;;;;;;;1999.90;999.90;;;13.30;99.60;;;;;;5049848;28;20048;-71
2023/06/27 09:19:01;;;;;;;1999.90;999.90;;;13.30;99.20;;;;;;5050416;28;20041;-71
2023/06/27 09:21:34;;;;;;;1999.90;999.90;;;13.30;99.20;;;;;;5050278;28;20036;-72
2023/06/27 09:24:12;;;;;;;1999.90;999.90;;;13.40;98.60;;;;;;5048232;28;20495;-70
2023/06/27 09:26:40;;;;;;;1999.90;999.90;;;13.50;98.30;;;;;;5052040;28;20121;-71
2023/06/27 09:29:07;;;;;;;1999.90;999.90;;;13.50;98.30;;;;;;5059987;28;20029;-70
2023/06/27 09:31:35;;;;;;;1999.90;999.90;;;13.50;98.30;;;;;;5052925;28;20083;-73
2023/06/27 09:34:12;;;;;;;1999.90;999.90;;;13.60;98.40;;;;;;5058871;28;20079;-71
2023/06/27 09:36:41;;;;;;;1999.90;999.90;;;13.60;98.60;;;;;;5050437;28;20108;-73
2023/06/27 09:39:16;;;;;;;1999.90;999.90;;;13.60;98.80;;;;;;5048754;28;22148;-74
2023/06/27 09:41:51;;;;;;;1999.90;999.90;;;13.70;98.80;;;;;;5051742;28;20041;-72
2023/06/27 09:44:25;;;;;;;1999.90;999.90;;;13.60;98.80;;;;;;5042107;28;20122;-72
2023/06/27 09:46:53;;;;;;;1999.90;999.90;;;13.60;98.80;;;;;;5050015;28;20472;-73
2023/06/27 09:49:22;;;;;;;1999.90;999.90;;;13.60;98.90;;;;;;5056509;28;20818;-71
2023/06/27 09:51:50;;;;;;;1999.90;999.90;;;13.60;98.90;;;;;;5050406;28;20021;-72
2023/06/27 09:54:23;;;;;;;1999.90;999.90;;;13.60;99.00;;;;;;5058935;28;20029;-70
2023/06/27 09:56:52;;;;;;;1999.90;999.90;;;13.60;99.20;;;;;;5042494;28;20039;-69
2023/06/27 09:59:26;;;;;;;1999.90;999.90;;;13.60;99.40;;;;;;5050293;28;20033;-72
2023/06/27 10:01:54;;;;;;;1999.90;999.90;;;13.60;99.50;;;;;;5052215;28;20422;-73
2023/06/27 10:04:23;;;;;;;1999.90;999.90;;;13.50;99.70;;;;;;5054738;28;20068;-71
2023/06/27 10:06:51;;;;;;;1999.90;999.90;;;13.40;99.90;;;;;;5050566;28;20575;-73
2023/06/27 10:09:19;;;;;;;1999.90;999.90;;;13.30;99.90;;;;;;5060214;28;20028;-72
2023/06/27 10:11:47;;;;;;;1999.90;999.90;;;13.30;99.90;;;;;;5050416;28;20017;-72
2023/06/27 10:14:15;;;;;;;1999.90;999.90;;;13.20;99.90;;;;;;5051237;28;20028;-69
2023/06/27 10:16:43;;;;;;;1999.90;999.90;;;13.20;99.90;;;;;;5054160;28;20502;-73
2023/06/27 10:19:11;;;;;;;1999.90;999.90;;;13.20;99.90;;;;;;5055386;28;20055;-69
2023/06/27 10:21:39;;;;;;;1999.90;999.90;;;13.20;99.90;;;;;;5044446;28;20340;-69
2023/06/27 10:24:07;;;;;;;1999.90;999.90;;;13.20;99.90;;;;;;5057673;28;20082;-69
2023/06/27 10:26:35;;;;;;;1999.90;999.90;;;13.20;99.90;;;;;;5042206;28;20043;-70
2023/06/27 10:29:14;;;;;;;1999.90;999.90;;;13.20;99.90;;;;;;5049365;28;20021;-69
2023/06/27 10:31:45;;;;;;;1999.90;999.90;;;13.20;99.90;;;;;;5047352;28;20786;-71
2023/06/27 10:34:32;;;;;;;1999.90;999.90;;;13.20;99.90;;;;;;5059628;28;20475;-71
2023/06/27 10:37:01;;;;;;;1999.90;999.90;;;13.20;99.90;;;;;;5052422;28;20475;-71
2023/06/27 10:39:33;;;;;;;1999.90;999.90;;;13.20;99.90;;;;;;5048103;28;20032;-72
2023/06/27 10:42:18;;;;;;;1999.90;999.90;;;13.20;99.90;;;;;;5041857;28;20045;-72
2023/06/27 10:45:07;;;;;;;1999.90;999.90;;;13.10;99.90;;;;;;5054500;28;20020;-70
2023/06/27 10:47:42;;;;;;;1999.90;999.90;;;13.10;99.90;;;;;;5052302;28;20487;-72
2023/06/27 10:50:20;;;;;;;1999.90;999.90;;;13.10;99.90;;;;;;5046198;28;20062;-71
2023/06/27 10:53:07;;;;;;;1999.90;999.90;;;13.10;99.90;;;;;;5048857;28;20039;-71
2023/06/27 10:55:37;;;;;;;1999.90;999.90;;;13.00;99.90;;;;;;5045387;28;20039;-72
2023/06/27 10:58:10;;;;;;;1999.90;999.90;;;13.00;99.90;;;;;;5049892;28;20066;-69
2023/06/27 11:00:43;;;;;;;1999.90;999.90;;;13.00;99.90;;;;;;5050199;28;20057;-70
2023/06/27 11:03:11;;;;;;;1999.90;999.90;;;13.00;99.90;;;;;;5051253;28;20028;-69
2023/06/27 11:05:54;;;;;;;1999.90;999.90;;;13.00;99.90;;;;;;5048924;28;20048;-70
2023/06/27 11:08:26;;;;;;;1999.90;999.90;;;13.00;99.90;;;;;;5050563;28;20032;-70
2023/06/27 11:11:00;;;;;;;1999.90;999.90;;;13.00;99.90;;;;;;5051310;28;20055;-71
2023/06/27 11:13:34;;;;;;;1999.90;999.90;;;13.00;99.90;;;;;;5043840;28;20101;-70
2023/06/27 11:16:02;;;;;;;1999.90;999.90;;;13.00;99.90;;;;;;5052189;28;20071;-69
2023/06/27 11:18:30;;;;;;;1999.90;999.90;;;13.00;99.90;;;;;;5052056;28;20030;-70
2023/06/27 11:20:58;;;;;;;1999.90;999.90;;;13.00;99.90;;;;;;5044439;28;20035;-68
2023/06/27 11:23:26;;;;;;;1999.90;999.90;;;13.00;99.90;;;;;;5049742;28;20048;-69
2023/06/27 11:25:54;;;;;;;1999.90;999.90;;;13.00;99.90;;;;;;5057057;28;20711;-69
2023/06/27 11:28:23;;;;;;;1999.90;999.90;;;13.00;99.90;;;;;;5051378;28;20028;-68
2023/06/27 11:30:58;;;;;;;1999.90;999.90;;;13.00;99.90;;;;;;5049315;28;20053;-68
2023/06/27 11:33:25;;;;;;;1999.90;999.90;;;13.00;99.90;;;;;;5050594;28;20051;-68
2023/06/27 11:35:56;;;;;;;1999.90;999.90;;;13.00;99.90;;;;;;5055032;28;20029;-69
2023/06/27 11:38:24;;;;;;;1999.90;999.90;;;13.00;99.90;;;;;;5047636;28;20111;-68
2023/06/27 11:40:51;;;;;;;1999.90;999.90;;;12.90;99.90;;;;;;5048955;28;20040;-69
2023/06/27 11:43:19;;;;;;;1999.90;999.90;;;12.90;99.90;;;;;;5048612;28;20017;-70
2023/06/27 11:45:48;;;;;;;1999.90;999.90;;;12.90;99.90;;;;;;5054623;28;20438;-69
2023/06/27 11:48:16;;;;;;;1999.90;999.90;;;12.90;99.90;;;;;;5051289;28;20024;-69
2023/06/27 11:51:06;;;;;;;1999.90;999.90;;;12.90;99.90;;;;;;5058871;28;20054;-70
2023/06/27 11:53:38;;;;;;;1999.90;999.90;;;12.90;99.90;;;;;;5057780;28;20388;-70
2023/06/27 11:56:08;;;;;;;1999.90;999.90;;;12.90;99.90;;;;;;5052472;28;20036;-71
2023/06/27 11:58:37;;;;;;;1999.90;999.90;;;12.90;99.90;;;;;;5048064;28;20435;-72
2023/06/27 12:01:16;;;;;;;1999.90;999.90;;;12.90;99.90;;;;;;5054276;28;20060;-70
2023/06/27 12:03:51;;;;;;;1999.90;999.90;;;12.90;99.90;;;;;;5057918;28;20020;-71
2023/06/27 12:06:28;;;;;;;1999.90;999.90;;;12.90;99.90;;;;;;5059652;28;20036;-70
2023/06/27 12:08:57;;;;;;;1999.90;999.90;;;12.90;99.90;;;;;;5055596;28;20032;-71